Time;durP1;ratioP1;P1;durP2;ratioP2;P2;SDS_P1;SDS_P2;PMS_P1;PMS_P2;Temp;Humidity;BMP_temperature;BMP_pressure;BME280_temperature;BME280_humidity;BME280_pressure;Samples;Min_cycle;Max_cycle;Signal;HPM_P1;HPM_P2
2022/05/03 00:01:39;;;;;;;6.10;3.05;;;;;;;8.60;58.90;101794.28;5023193;28;20133;-69
2022/05/03 00:04:16;;;;;;;4.72;3.13;;;;;;;8.54;58.86;101789.97;5031243;28;20042;-68
2022/05/03 00:07:11;;;;;;;6.43;3.30;;;;;;;8.49;59.07;101783.88;5029040;28;20908;-68
2022/05/03 00:09:50;;;;;;;6.38;3.40;;;;;;;8.46;59.22;101781.22;5031330;28;20571;-69
2022/05/03 00:12:27;;;;;;;4.38;3.25;;;;;;;8.44;58.96;101776.88;5032074;28;20096;-68
2022/05/03 00:15:03;;;;;;;4.70;3.00;;;;;;;8.38;59.06;101783.91;5031377;28;20126;-68
2022/05/03 00:17:33;;;;;;;4.65;3.17;;;;;;;8.34;59.23;101782.19;5030690;28;20045;-68
2022/05/03 00:20:02;;;;;;;3.42;2.72;;;;;;;8.29;59.32;101772.56;5030046;28;20405;-68
2022/05/03 00:22:32;;;;;;;3.50;2.78;;;;;;;8.23;59.25;101781.34;5030170;28;20042;-67
2022/05/03 00:24:59;;;;;;;4.47;3.00;;;;;;;8.18;59.39;101777.91;5026321;28;20042;-68
2022/05/03 00:27:28;;;;;;;5.00;3.25;;;;;;;8.16;59.29;101777.03;5027014;28;20041;-68
2022/05/03 00:29:58;;;;;;;3.85;2.95;;;;;;;8.10;59.41;101780.56;5031448;28;20122;-68
2022/05/03 00:32:26;;;;;;;5.20;3.05;;;;;;;8.07;59.46;101775.31;5031251;28;20038;-67
2022/05/03 00:35:00;;;;;;;7.07;3.17;;;;;;;8.01;59.35;101776.22;5030603;28;20524;-67
2022/05/03 00:37:28;;;;;;;4.60;3.17;;;;;;;7.96;59.37;101771.84;5031120;28;20121;-67
2022/05/03 00:39:55;;;;;;;4.47;3.33;;;;;;;7.91;59.46;101775.41;5030708;28;20080;-67
2022/05/03 00:42:39;;;;;;;4.57;3.25;;;;;;;7.85;59.51;101772.78;5030086;28;20508;-67
2022/05/03 00:45:25;;;;;;;4.43;2.97;;;;;;;7.81;59.64;101773.69;5029604;28;20065;-67
2022/05/03 00:48:06;;;;;;;5.53;2.97;;;;;;;7.76;59.50;101764.94;5028374;28;20046;-68
2022/05/03 00:50:53;;;;;;;5.38;3.50;;;;;;;7.71;59.83;101771.97;5016670;28;20041;-67
2022/05/03 00:53:31;;;;;;;5.55;3.50;;;;;;;7.67;59.79;101776.38;5025105;28;20085;-68
2022/05/03 00:56:14;;;;;;;6.20;3.30;;;;;;;7.64;59.87;101773.75;5030321;28;20049;-67
2022/05/03 00:59:00;;;;;;;5.10;3.25;;;;;;;7.59;59.94;101772.88;5029322;28;20052;-68
2022/05/03 01:01:53;;;;;;;4.82;3.17;;;;;;;7.55;59.99;101779.88;5030725;28;20049;-68
2022/05/03 01:05:11;;;;;;;5.78;3.25;;;;;;;7.48;60.33;101780.78;5024470;28;20109;-68
2022/05/03 01:08:05;;;;;;;7.82;3.40;;;;;;;7.44;60.56;101777.28;5030665;28;20060;-68
2022/05/03 01:11:05;;;;;;;4.22;3.10;;;;;;;7.42;60.63;101780.81;5030669;28;20130;-68
2022/05/03 01:13:47;;;;;;;4.55;3.03;;;;;;;7.38;60.55;101779.06;5030312;28;20136;-68
2022/05/03 01:16:31;;;;;;;6.07;3.20;;;;;;;7.34;60.74;101780.81;5028928;28;20045;-69
2022/05/03 01:19:41;;;;;;;5.00;3.50;;;;;;;7.29;60.62;101779.94;5029422;28;20066;-69
2022/05/03 01:22:15;;;;;;;5.22;3.10;;;;;;;7.23;61.08;101775.56;5029691;28;20045;-70
2022/05/03 01:25:09;;;;;;;5.05;3.30;;;;;;;7.21;61.22;101781.69;5028380;28;20038;-67
2022/05/03 01:27:59;;;;;;;6.13;3.00;;;;;;;7.18;61.18;101784.31;5029307;28;20043;-68
2022/05/03 01:30:29;;;;;;;5.60;3.40;;;;;;;7.15;61.34;101777.34;5025397;28;20046;-67
2022/05/03 01:33:08;;;;;;;6.35;3.20;;;;;;;7.10;60.81;101782.59;5024648;28;20129;-67
2022/05/03 01:35:40;;;;;;;4.82;3.53;;;;;;;7.05;61.19;101779.09;5030069;28;20090;-68
2022/05/03 01:38:55;;;;;;;5.55;3.08;;;;;;;7.01;61.56;101776.50;5030984;28;20049;-67
2022/05/03 01:42:21;;;;;;;6.38;3.45;;;;;;;6.94;61.98;101781.72;5025194;28;20081;-68
2022/05/03 01:45:07;;;;;;;8.80;3.40;;;;;;;6.92;62.45;101782.59;5028760;28;20507;-67
2022/05/03 01:51:54;;;;;;;4.07;3.20;;;;;;;6.87;62.65;101782.59;5074699;28;20087;-67
2022/05/03 01:54:47;;;;;;;3.50;2.85;;;;;;;6.84;62.54;101779.97;5070411;28;20053;-68
2022/05/03 01:58:06;;;;;;;4.90;3.47;;;;;;;6.82;63.24;101771.22;5029119;28;20054;-68
2022/05/03 02:00:36;;;;;;;4.15;3.30;;;;;;;6.79;62.95;101772.09;5027467;28;20041;-68
2022/05/03 02:03:48;;;;;;;4.32;3.30;;;;;;;6.77;63.40;101779.09;5026574;28;20553;-67
2022/05/03 02:06:28;;;;;;;5.72;3.65;;;;;;;6.74;63.48;101776.47;5020270;28;20117;-67
2022/05/03 02:09:04;;;;;;;5.65;3.45;;;;;;;6.72;63.53;101778.22;5028562;28;20607;-67
2022/05/03 02:12:05;;;;;;;6.05;3.50;;;;;;;6.73;64.07;101774.72;5030061;28;20117;-68
2022/05/03 02:14:45;;;;;;;4.35;3.28;;;;;;;6.72;64.46;101772.97;5030960;28;20038;-67
2022/05/03 02:18:02;;;;;;;5.18;3.60;;;;;;;6.73;64.24;101772.13;5028655;28;20065;-68
2022/05/03 02:21:18;;;;;;;4.65;3.53;;;;;;;6.72;64.18;101772.09;5033240;28;20045;-67
2022/05/03 02:24:21;;;;;;;5.57;3.70;;;;;;;6.69;64.40;101780.81;5028449;28;20152;-67
2022/05/03 02:27:10;;;;;;;6.68;3.72;;;;;;;6.64;64.12;101772.97;5031840;28;20038;-68
2022/05/03 02:29:47;;;;;;;6.03;3.90;;;;;;;6.59;64.16;101769.47;5031395;28;20539;-68
2022/05/03 02:32:30;;;;;;;5.25;3.97;;;;;;;6.58;64.44;101785.19;5033694;28;20156;-68
2022/05/03 02:35:06;;;;;;;7.32;3.85;;;;;;;6.52;64.47;101781.69;5030769;28;20030;-66
2022/05/03 02:37:57;;;;;;;6.22;3.42;;;;;;;6.52;65.13;101780.81;5032801;28;20058;-68
2022/05/03 02:40:30;;;;;;;6.30;3.60;;;;;;;6.47;65.03;101774.69;5022365;28;20093;-68
2022/05/03 02:42:58;;;;;;;5.97;3.90;;;;;;;6.46;64.88;101770.31;5030744;28;20424;-69
2022/05/03 02:45:32;;;;;;;5.45;4.10;;;;;;;6.44;65.12;101769.44;5032143;28;20140;-68
2022/05/03 02:48:20;;;;;;;5.78;4.32;;;;;;;6.41;65.05;101764.22;5027596;28;20041;-66
2022/05/03 02:51:03;;;;;;;5.43;3.80;;;;;;;-147.05;100.00;58721.66;5030509;28;20049;-67
2022/05/03 02:53:44;;;;;;;5.93;4.10;;;;;;;-147.05;100.00;58721.66;5026484;28;20041;-67
2022/05/03 02:56:24;;;;;;;8.65;4.30;;;;;;;-147.05;100.00;58721.66;5032525;28;20081;-68
2022/05/03 03:02:47;;;;;;;5.57;3.95;;;;;;;-147.05;100.00;58721.66;5028005;28;20038;-66
2022/05/03 03:05:22;;;;;;;7.22;4.35;;;;;;;-147.05;100.00;58721.66;5031839;28;20483;-68
2022/05/03 03:07:57;;;;;;;5.97;4.07;;;;;;;6.18;66.15;101773.75;5031121;28;20070;-66
2022/05/03 03:10:41;;;;;;;8.07;4.65;;;;;;;6.14;66.04;101769.41;5032117;28;20135;-65
2022/05/03 03:13:48;;;;;;;;;;;;;;;6.10;66.16;101767.63;5017911;28;20038;-66
2022/05/03 03:16:31;;;;;;;7.53;4.10;;;;;;;6.09;66.33;101776.34;5028990;28;19925;-67
2022/05/03 03:19:14;;;;;;;6.72;4.68;;;;;;;6.04;66.45;101772.84;5017074;28;20457;-67
2022/05/03 03:21:47;;;;;;;6.93;4.68;;;;;;;6.02;66.45;101772.81;5032161;28;20054;-69
2022/05/03 03:24:20;;;;;;;6.32;4.57;;;;;;;6.00;66.59;101769.31;5032286;28;20038;-68
2022/05/03 03:26:49;;;;;;;7.65;5.05;;;;;;;5.98;66.88;101765.81;5031559;28;20046;-68
2022/05/03 03:29:19;;;;;;;7.15;4.57;;;;;;;5.97;66.84;101765.78;5031157;28;20046;-68
2022/05/03 03:31:46;;;;;;;7.38;4.82;;;;;;;5.97;67.11;101763.16;5029645;28;20066;-68
2022/05/03 03:34:14;;;;;;;7.20;5.05;;;;;;;5.97;67.09;101761.44;5030579;28;20520;-68
2022/05/03 03:36:44;;;;;;;8.45;5.40;;;;;;;5.95;67.14;101771.03;5031144;28;20069;-68
2022/05/03 03:39:11;;;;;;;9.15;5.32;;;;;;;5.93;67.22;101764.06;5030962;28;20511;-68
2022/05/03 03:41:39;;;;;;;8.75;5.38;;;;;;;5.91;67.19;101766.63;5033480;28;20525;-67
2022/05/03 03:44:08;;;;;;;13.18;5.60;;;;;;;5.87;67.42;101763.13;5028857;28;20056;-69
2022/05/03 03:46:35;;;;;;;8.93;5.53;;;;;;;5.84;67.40;101763.16;5032039;28;20042;-69
2022/05/03 03:49:02;;;;;;;8.63;5.43;;;;;;;5.83;67.41;101763.13;5031006;28;20046;-68
2022/05/03 03:51:30;;;;;;;9.98;5.82;;;;;;;5.83;67.72;101769.25;5032022;28;20041;-69
2022/05/03 03:53:57;;;;;;;10.70;5.63;;;;;;;5.83;67.60;101774.47;5031528;28;20046;-68
2022/05/03 03:56:26;;;;;;;10.48;5.80;;;;;;;5.81;67.58;101768.34;5029458;28;20050;-68
2022/05/03 03:58:53;;;;;;;10.32;5.88;;;;;;;5.80;67.77;101766.59;5031342;28;20060;-67
2022/05/03 04:01:20;;;;;;;14.07;5.47;;;;;;;5.78;67.67;101773.56;5028555;28;20045;-67
2022/05/03 04:03:49;;;;;;;8.20;5.45;;;;;;;5.78;67.90;101767.47;5032588;28;20042;-68
2022/05/03 04:06:16;;;;;;;7.55;5.15;;;;;;;5.79;68.07;101772.72;5029784;28;20073;-69
2022/05/03 04:08:43;;;;;;;10.88;5.90;;;;;;;5.80;68.33;101769.22;5031736;28;20157;-69
2022/05/03 04:11:17;;;;;;;9.48;5.32;;;;;;;5.85;68.94;101766.63;5031066;28;20054;-69
2022/05/03 04:13:45;;;;;;;7.78;5.53;;;;;;;-147.05;100.00;58721.66;5032215;28;20100;-69
2022/05/03 04:16:12;;;;;;;9.32;6.10;;;;;;;-147.05;100.00;58721.66;5035004;28;20049;-70
2022/05/03 04:18:47;;;;;;;10.00;5.63;;;;;;;-147.05;100.00;58721.66;5037834;28;20046;-68
2022/05/03 04:21:14;;;;;;;;;;;;;;;-147.05;100.00;58721.66;5037212;28;20048;-69
2022/05/03 04:23:41;;;;;;;8.55;5.45;;;;;;;-147.05;100.00;58721.66;5036784;28;20762;-69
2022/05/03 04:26:09;;;;;;;12.40;6.18;;;;;;;-147.05;100.00;58721.66;5037055;28;20765;-68
2022/05/03 04:28:36;;;;;;;9.43;6.18;;;;;;;-147.05;100.00;58721.66;5035380;28;20050;-69
2022/05/03 04:31:04;;;;;;;9.55;6.38;;;;;;;-147.05;100.00;58721.66;5030259;28;20118;-69
2022/05/03 04:33:32;;;;;;;8.88;5.65;;;;;;;-147.05;100.00;58721.66;5034004;28;20038;-67
2022/05/03 04:35:59;;;;;;;10.95;6.18;;;;;;;-147.05;100.00;58721.66;5034209;28;20560;-68
2022/05/03 04:38:27;;;;;;;11.43;6.22;;;;;;;-147.05;100.00;58721.66;5037505;28;20046;-69
2022/05/03 04:41:01;;;;;;;10.00;5.65;;;;;;;-147.05;100.00;58721.66;5036743;28;20053;-70
2022/05/03 04:43:28;;;;;;;10.13;5.90;;;;;;;-147.05;100.00;58721.66;5028796;28;20045;-69
2022/05/03 04:45:56;;;;;;;9.38;5.93;;;;;;;-147.05;100.00;58721.66;5034571;28;20042;-70
2022/05/03 04:48:22;;;;;;;10.00;5.47;;;;;;;-147.05;100.00;58721.66;5035933;28;20086;-68
2022/05/03 04:50:49;;;;;;;9.27;5.57;;;;;;;-147.05;100.00;58721.66;5035970;28;20853;-68
2022/05/03 04:53:16;;;;;;;10.57;5.30;;;;;;;-147.05;100.00;58721.66;5038438;28;20104;-67
2022/05/03 04:55:44;;;;;;;11.40;5.82;;;;;;;-147.05;100.00;58721.66;5037211;28;20124;-68
2022/05/03 04:58:10;;;;;;;13.70;6.30;;;;;;;-147.05;100.00;58721.66;5033679;28;20038;-66
2022/05/03 05:00:37;;;;;;;9.93;6.50;;;;;;;-147.05;100.00;58721.66;5035348;28;20038;-66
2022/05/03 05:03:04;;;;;;;9.75;6.07;;;;;;;-147.05;100.00;58721.66;5036936;28;20045;-67
2022/05/03 05:05:32;;;;;;;9.90;6.10;;;;;;;-147.05;100.00;58721.66;5036188;28;20034;-66
2022/05/03 05:08:06;;;;;;;11.52;5.68;;;;;;;-147.05;100.00;58721.66;5037982;28;20041;-66
2022/05/03 05:10:34;;;;;;;9.95;5.45;;;;;;;-147.05;100.00;58721.66;5034829;28;20038;-66
2022/05/03 05:13:01;;;;;;;8.40;6.00;;;;;;;-147.05;100.00;58721.66;5037018;28;20896;-66
2022/05/03 05:15:35;;;;;;;11.52;6.28;;;;;;;-147.05;100.00;58721.66;5034198;28;20034;-66
2022/05/03 05:18:03;;;;;;;11.38;5.82;;;;;;;-147.05;100.00;58721.66;5038785;28;20052;-65
2022/05/03 05:20:30;;;;;;;6.43;4.85;;;;;;;-147.05;100.00;58721.66;5036907;28;20045;-67
2022/05/03 05:22:57;;;;;;;6.95;5.47;;;;;;;-147.05;100.00;58721.66;5037216;28;20048;-66
2022/05/03 05:25:49;;;;;;;8.00;5.20;;;;;;;-147.05;100.00;58721.66;5033342;28;20121;-67
2022/05/03 05:28:18;;;;;;;9.07;5.80;;;;;;;-147.05;100.00;58721.66;5035923;28;20893;-68
2022/05/03 05:30:46;;;;;;;7.07;5.43;;;;;;;-147.05;100.00;58721.66;5037086;28;20035;-66
2022/05/03 05:33:13;;;;;;;9.73;5.47;;;;;;;-147.05;100.00;58721.66;5036771;28;20530;-66
2022/05/03 05:35:40;;;;;;;11.10;5.88;;;;;;;-147.05;100.00;58721.66;5036788;28;20531;-66
2022/05/03 05:38:08;;;;;;;8.30;5.50;;;;;;;-147.05;100.00;58721.66;5033057;28;20125;-67
2022/05/03 05:40:35;;;;;;;10.07;5.85;;;;;;;-147.05;100.00;58721.66;5024005;28;20046;-66
2022/05/03 05:43:03;;;;;;;8.75;6.00;;;;;;;-147.05;100.00;58721.66;5027866;28;20034;-66
2022/05/03 05:45:31;;;;;;;8.23;5.65;;;;;;;-147.05;100.00;58721.66;5038698;28;20038;-66
2022/05/03 05:47:58;;;;;;;9.35;5.63;;;;;;;-147.05;100.00;58721.66;5040230;28;20095;-65
2022/05/03 05:50:25;;;;;;;27.13;6.88;;;;;;;-147.05;100.00;58721.66;5041644;28;20116;-69
2022/05/03 05:55:38;;;;;;;11.75;6.38;;;;;;;-147.05;100.00;58721.66;5039431;28;20042;-68
2022/05/03 05:58:05;;;;;;;9.23;5.88;;;;;;;-147.05;100.00;58721.66;5040283;28;20161;-69
2022/05/03 06:00:32;;;;;;;8.98;6.32;;;;;;;-147.05;100.00;58721.66;5039871;28;20532;-69
2022/05/03 06:02:59;;;;;;;9.60;5.63;;;;;;;-147.05;100.00;58721.66;5039930;28;20042;-68
2022/05/03 06:05:27;;;;;;;8.02;5.70;;;;;;;-147.05;100.00;58721.66;5041502;28;20037;-69
2022/05/03 06:07:54;;;;;;;9.85;6.03;;;;;;;-147.05;100.00;58721.66;5040881;28;20042;-69
2022/05/03 06:10:21;;;;;;;10.68;6.20;;;;;;;-147.05;100.00;58721.66;5039711;28;20055;-68
2022/05/03 06:12:48;;;;;;;8.63;5.97;;;;;;;-147.05;100.00;58721.66;5041136;28;20041;-69
2022/05/03 06:15:16;;;;;;;11.93;6.10;;;;;;;-147.05;100.00;58721.66;5041339;28;20121;-69
2022/05/03 06:17:44;;;;;;;13.27;6.80;;;;;;;-147.05;100.00;58721.66;5040282;28;20054;-70
2022/05/03 06:20:11;;;;;;;12.27;6.53;;;;;;;-147.05;100.00;58721.66;5041401;28;20057;-69
2022/05/03 06:22:39;;;;;;;10.00;6.63;;;;;;;-147.05;100.00;58721.66;5033718;28;20038;-68
2022/05/03 06:25:10;;;;;;;8.73;6.38;;;;;;;-147.05;100.00;58721.66;5032853;28;20041;-69
2022/05/03 06:27:40;;;;;;;16.60;7.40;;;;;;;-147.05;100.00;58721.66;5031111;28;20034;-69
2022/05/03 06:30:08;;;;;;;17.20;7.15;;;;;;;-147.05;100.00;58721.66;5038731;28;20046;-68
2022/05/03 06:32:37;;;;;;;8.63;5.85;;;;;;;-147.05;100.00;58721.66;5040711;28;20125;-69
2022/05/03 06:35:04;;;;;;;9.18;6.30;;;;;;;-147.05;100.00;58721.66;5040959;28;20050;-69
2022/05/03 06:37:36;;;;;;;25.38;7.35;;;;;;;-147.05;100.00;58721.66;5040018;28;20060;-68
2022/05/03 06:40:08;;;;;;;8.55;5.65;;;;;;;-147.05;100.00;58721.66;5039472;28;20073;-68
2022/05/03 06:42:37;;;;;;;8.57;5.60;;;;;;;-147.05;100.00;58721.66;5033815;28;20046;-68
2022/05/03 06:45:06;;;;;;;6.32;5.03;;;;;;;-147.05;100.00;58721.66;5035168;28;20045;-68
2022/05/03 06:47:33;;;;;;;8.48;5.70;;;;;;;-147.05;100.00;58721.66;5026599;28;20288;-69
2022/05/03 06:50:01;;;;;;;7.80;4.90;;;;;;;-147.05;100.00;58721.66;5036539;28;20078;-68
2022/05/03 06:52:28;;;;;;;9.27;5.03;;;;;;;-147.05;100.00;58721.66;5037259;28;20045;-68
2022/05/03 06:54:55;;;;;;;5.70;4.43;;;;;;;-147.05;100.00;58721.66;5051563;28;20053;-68
2022/05/03 06:57:22;;;;;;;6.43;4.85;;;;;;;-147.05;100.00;58721.66;5036280;28;20038;-69
2022/05/03 06:59:50;;;;;;;5.50;4.10;;;;;;;-147.05;100.00;58721.66;5037821;28;21167;-69
2022/05/03 07:02:18;;;;;;;6.13;4.13;;;;;;;-147.05;100.00;58721.66;5035624;28;20041;-70
2022/05/03 07:04:46;;;;;;;6.88;4.40;;;;;;;-147.05;100.00;58721.66;5033914;28;20034;-69
2022/05/03 07:07:13;;;;;;;5.72;4.25;;;;;;;-147.05;100.00;58721.66;5034644;28;20051;-68
2022/05/03 07:09:41;;;;;;;8.30;4.50;;;;;;;-147.05;100.00;58721.66;5019444;28;20053;-68
2022/05/03 07:12:09;;;;;;;4.60;3.42;;;;;;;-147.05;100.00;58721.66;5036000;28;20605;-69
2022/05/03 07:14:36;;;;;;;4.53;3.17;;;;;;;-147.05;100.00;58721.66;5030446;28;20050;-69
2022/05/03 07:17:05;;;;;;;7.20;3.72;;;;;;;-147.05;100.00;58721.66;5037136;28;20038;-69
2022/05/03 07:25:04;;;;;;;6.78;3.20;;;;;;;-147.05;100.00;58721.66;5036866;28;20038;-69
2022/05/03 07:27:31;;;;;;;6.45;2.83;;;;;;;-147.05;100.00;58721.66;5036877;28;20050;-69
2022/05/03 07:29:58;;;;;;;5.75;2.88;;;;;;;-147.05;100.00;58721.66;5024775;28;20038;-69
2022/05/03 07:32:25;;;;;;;4.20;2.58;;;;;;;-147.05;100.00;58721.66;5026409;28;20154;-70
2022/05/03 07:34:52;;;;;;;3.88;2.50;;;;;;;-147.05;100.00;58721.66;5021134;28;20053;-70
2022/05/03 07:37:20;;;;;;;3.25;2.38;;;;;;;-147.05;100.00;58721.66;5019978;28;20069;-69
2022/05/03 07:39:47;;;;;;;6.13;2.80;;;;;;;-147.05;100.00;58721.66;5017239;28;20050;-69
2022/05/03 07:42:15;;;;;;;4.07;2.50;;;;;;;-147.05;100.00;58721.66;5025400;28;20076;-70
2022/05/03 07:44:42;;;;;;;4.80;2.00;;;;;;;-147.05;100.00;58721.66;5021335;28;21715;-70
2022/05/03 07:47:08;;;;;;;5.28;2.65;;;;;;;-147.05;100.00;58721.66;5039931;28;20041;-70
2022/05/03 07:49:35;;;;;;;4.15;2.67;;;;;;;-147.05;100.00;58721.66;5029899;28;20579;-69
2022/05/03 07:52:05;;;;;;;3.25;2.58;;;;;;;-147.05;100.00;58721.66;5026569;28;20038;-70
2022/05/03 07:54:33;;;;;;;3.47;2.53;;;;;;;-147.05;100.00;58721.66;5035436;28;20041;-70
2022/05/03 07:57:00;;;;;;;4.97;2.30;;;;;;;-147.05;100.00;58721.66;5032369;28;20041;-68
2022/05/03 07:59:27;;;;;;;5.45;2.60;;;;;;;-147.05;100.00;58721.66;5025698;28;20089;-69
2022/05/03 08:01:55;;;;;;;6.20;3.05;;;;;;;-147.05;100.00;58721.66;5026967;28;20092;-71
2022/05/03 08:04:22;;;;;;;4.10;2.80;;;;;;;-147.05;100.00;58721.66;5024783;28;20034;-70
2022/05/03 08:06:49;;;;;;;6.57;2.60;;;;;;;-147.05;100.00;58721.66;5033610;28;20150;-69
2022/05/03 08:09:16;;;;;;;3.20;2.42;;;;;;;-147.05;100.00;58721.66;5030522;28;20034;-70
2022/05/03 08:11:43;;;;;;;4.32;2.95;;;;;;;-147.05;100.00;58721.66;5034027;28;20074;-70
2022/05/03 08:14:11;;;;;;;6.72;3.30;;;;;;;-147.05;100.00;58721.66;5027393;28;20038;-69
2022/05/03 08:16:39;;;;;;;4.30;3.00;;;;;;;-147.05;100.00;58721.66;5026297;28;20049;-69
2022/05/03 08:19:06;;;;;;;4.60;3.28;;;;;;;-147.05;100.00;58721.66;5025669;28;20093;-69
2022/05/03 08:21:35;;;;;;;10.05;3.85;;;;;;;-147.05;100.00;58721.66;5020784;28;20045;-69
2022/05/03 08:24:03;;;;;;;5.40;3.30;;;;;;;-147.05;100.00;58721.66;5020042;28;20732;-69
2022/05/03 08:26:31;;;;;;;4.47;3.20;;;;;;;-147.05;100.00;58721.66;5015621;28;20050;-70
2022/05/03 08:28:58;;;;;;;6.45;3.20;;;;;;;-147.05;100.00;58721.66;5028199;28;20050;-70
2022/05/03 08:31:26;;;;;;;5.55;3.00;;;;;;;-147.05;100.00;58721.66;5025949;28;20042;-69
2022/05/03 08:33:53;;;;;;;6.13;3.13;;;;;;;-147.05;100.00;58721.66;5032489;28;20587;-70
2022/05/03 08:36:20;;;;;;;4.60;2.85;;;;;;;-147.05;100.00;58721.66;5019516;28;20061;-69
2022/05/03 08:44:30;;;;;;;4.32;2.88;;;;;;;-147.05;100.00;58721.66;5038595;28;20050;-69
2022/05/03 08:46:59;;;;;;;6.60;3.22;;;;;;;-147.05;100.00;58721.66;5030862;28;20056;-69
2022/05/03 08:50:00;;;;;;;5.15;3.60;;;;;;;-147.05;100.00;58721.66;5029270;28;20093;-70
2022/05/03 08:52:33;;;;;;;7.32;3.53;;;;;;;-147.05;100.00;58721.66;5022316;28;20042;-69
2022/05/03 08:55:03;;;;;;;11.15;3.92;;;;;;;-147.05;100.00;58721.66;5027402;28;20038;-69
2022/05/03 08:57:30;;;;;;;6.40;3.50;;;;;;;-147.05;100.00;58721.66;5021579;28;20050;-70
2022/05/03 08:59:58;;;;;;;9.75;4.03;;;;;;;-147.05;100.00;58721.66;5029519;28;20042;-69
2022/05/03 09:02:27;;;;;;;5.72;3.65;;;;;;;-147.05;100.00;58721.66;5028324;28;20089;-68
2022/05/03 09:04:54;;;;;;;4.82;3.58;;;;;;;-147.05;100.00;58721.66;5029398;28;20100;-70
2022/05/03 09:07:24;;;;;;;6.30;3.80;;;;;;;-147.05;100.00;58721.66;5026841;28;20133;-70
2022/05/03 09:09:53;;;;;;;8.13;4.45;;;;;;;-147.05;100.00;58721.66;5042738;28;20512;-70
2022/05/03 09:12:29;;;;;;;6.32;4.47;;;;;;;-147.05;100.00;58721.66;5024957;28;20042;-70
2022/05/03 09:15:02;;;;;;;6.53;4.70;;;;;;;-147.05;100.00;58721.66;5029333;28;20729;-70
2022/05/03 09:17:44;;;;;;;7.35;5.00;;;;;;;-147.05;100.00;58721.66;5027227;28;20045;-71
2022/05/03 09:26:09;;;;;;;7.75;4.75;;;;;;;-147.05;100.00;58721.66;5016976;28;19925;-69
2022/05/03 09:28:44;;;;;;;5.82;4.20;;;;;;;-147.05;100.00;58721.66;5028789;28;20116;-71
2022/05/03 09:31:12;;;;;;;7.68;4.50;;;;;;;-147.05;100.00;58721.66;5025533;28;20093;-70
2022/05/03 09:33:39;;;;;;;5.50;4.03;;;;;;;-147.05;100.00;58721.66;5025636;28;20048;-68
2022/05/03 09:36:11;;;;;;;6.80;4.35;;;;;;;-147.05;100.00;58721.66;5019292;28;20054;-70
2022/05/03 09:38:58;;;;;;;5.45;4.20;;;;;;;-147.05;100.00;58721.66;5032088;28;20049;-69
2022/05/03 09:41:25;;;;;;;5.95;4.28;;;;;;;-147.05;100.00;58721.66;5029450;28;20045;-70
2022/05/03 09:44:08;;;;;;;10.63;4.10;;;;;;;-147.05;100.00;58721.66;5026735;28;20043;-70
2022/05/03 09:46:50;;;;;;;7.10;3.60;;;;;;;-147.05;100.00;58721.66;5017617;28;20121;-70
2022/05/03 09:49:19;;;;;;;4.93;3.60;;;;;;;-147.05;100.00;58721.66;5021822;28;20045;-70
2022/05/03 09:51:49;;;;;;;6.88;3.80;;;;;;;-147.05;100.00;58721.66;5028194;28;20037;-69
2022/05/03 09:54:16;;;;;;;5.75;3.88;;;;;;;-147.05;100.00;58721.66;5018065;28;20867;-70
2022/05/03 09:56:48;;;;;;;4.97;3.50;;;;;;;-147.05;100.00;58721.66;5018430;28;20069;-70
2022/05/03 09:59:16;;;;;;;5.53;3.95;;;;;;;-147.05;100.00;58721.66;5016522;28;20054;-71
2022/05/03 10:01:44;;;;;;;6.65;4.10;;;;;;;-147.05;100.00;58721.66;5024643;28;20614;-69
2022/05/03 10:04:13;;;;;;;7.75;4.13;;;;;;;-147.05;100.00;58721.66;5029456;28;20428;-70
2022/05/03 10:06:40;;;;;;;10.40;4.20;;;;;;;-147.05;100.00;58721.66;5020897;28;20046;-70
2022/05/03 10:09:10;;;;;;;6.20;4.25;;;;;;;-147.05;100.00;58721.66;5028784;28;20047;-68
2022/05/03 10:11:39;;;;;;;5.70;4.13;;;;;;;-147.05;100.00;58721.66;5032149;28;20053;-70
2022/05/03 10:14:07;;;;;;;6.50;5.07;;;;;;;-147.05;100.00;58721.66;5025109;28;20590;-71
2022/05/03 10:22:26;;;;;;;5.57;4.28;;;;;;;-147.05;100.00;58721.66;5024681;28;20069;-70
2022/05/03 10:24:58;;;;;;;8.35;4.82;;;;;;;-147.05;100.00;58721.66;5046131;28;20054;-71
2022/05/03 10:27:28;;;;;;;34.50;6.93;;;;;;;-147.05;100.00;58721.66;5026560;28;20046;-70
2022/05/03 10:30:28;;;;;;;7.05;4.70;;;;;;;-147.05;100.00;58721.66;5037232;28;20532;-71
2022/05/03 10:33:30;;;;;;;5.75;4.43;;;;;;;-147.05;100.00;58721.66;5031582;28;20085;-71
2022/05/03 10:35:59;;;;;;;9.75;5.38;;;;;;;-147.05;100.00;58721.66;5072979;28;20064;-70
2022/05/03 10:38:43;;;;;;;8.82;4.68;;;;;;;-147.05;100.00;58721.66;5042063;28;20058;-71
2022/05/03 10:41:11;;;;;;;5.95;3.95;;;;;;;-147.05;100.00;58721.66;5036957;28;20042;-70
2022/05/03 10:43:38;;;;;;;7.18;4.82;;;;;;;-147.05;100.00;58721.66;5035622;28;20042;-70
2022/05/03 10:46:11;;;;;;;10.75;5.35;;;;;;;-147.05;100.00;58721.66;5032095;28;20133;-70
2022/05/03 10:48:43;;;;;;;5.00;4.13;;;;;;;-147.05;100.00;58721.66;5024644;28;20112;-69
2022/05/03 10:51:13;;;;;;;5.03;4.32;;;;;;;-147.05;100.00;58721.66;5026920;28;20815;-69
2022/05/03 10:53:42;;;;;;;5.93;4.30;;;;;;;-147.05;100.00;58721.66;5025243;28;20053;-70
2022/05/03 10:56:18;;;;;;;6.00;4.32;;;;;;;-147.05;100.00;58721.66;5041937;28;20042;-71
2022/05/03 10:58:47;;;;;;;28.48;6.45;;;;;;;-147.05;100.00;58721.66;5019077;28;20030;-70
2022/05/03 11:01:22;;;;;;;8.93;5.03;;;;;;;-147.05;100.00;58721.66;5020652;28;20046;-71
2022/05/03 11:03:52;;;;;;;8.40;4.93;;;;;;;-147.05;100.00;58721.66;5030134;28;20131;-70
2022/05/03 11:06:19;;;;;;;5.90;4.63;;;;;;;-147.05;100.00;58721.66;5020137;28;20048;-69
2022/05/03 11:08:59;;;;;;;6.13;4.63;;;;;;;-147.05;100.00;58721.66;5029085;28;20042;-71
2022/05/03 11:11:42;;;;;;;6.13;4.20;;;;;;;-147.05;100.00;58721.66;5024239;28;20636;-70
2022/05/03 11:17:01;;;;;;;13.18;4.97;;;;;;;-147.05;100.00;58721.66;5019828;28;20047;-71
2022/05/03 11:19:33;;;;;;;12.48;4.82;;;;;;;-147.05;100.00;58721.66;5019521;28;20056;-70
2022/05/03 11:22:08;;;;;;;8.68;5.25;;;;;;;-147.05;100.00;58721.66;5024502;28;20118;-69
2022/05/03 11:24:36;;;;;;;7.97;5.60;;;;;;;-147.05;100.00;58721.66;5028205;28;20049;-71
2022/05/03 11:27:09;;;;;;;5.25;4.50;;;;;;;-147.05;100.00;58721.66;5028824;28;20435;-69
2022/05/03 11:29:41;;;;;;;7.82;4.90;;;;;;;-147.05;100.00;58721.66;5029802;28;20038;-71
2022/05/03 11:32:09;;;;;;;7.30;5.40;;;;;;;-147.05;100.00;58721.66;5023226;28;20862;-69
2022/05/03 11:34:38;;;;;;;8.02;5.50;;;;;;;-147.05;100.00;58721.66;5021326;28;20038;-70
2022/05/03 11:37:08;;;;;;;7.22;5.15;;;;;;;-147.05;100.00;58721.66;5014812;28;20086;-70
2022/05/03 11:39:36;;;;;;;5.35;4.78;;;;;;;-147.05;100.00;58721.66;5025476;28;20180;-71
2022/05/03 11:42:06;;;;;;;6.03;4.43;;;;;;;-147.05;100.00;58721.66;5034518;28;20034;-69
2022/05/03 11:44:33;;;;;;;23.23;6.25;;;;;;;-147.05;100.00;58721.66;5035214;28;20034;-70
2022/05/03 11:47:04;;;;;;;5.82;4.82;;;;;;;-147.05;100.00;58721.66;5026687;28;20121;-69
2022/05/03 11:49:32;;;;;;;7.25;4.75;;;;;;;-147.05;100.00;58721.66;5027884;28;20493;-70
2022/05/03 11:57:42;;;;;;;8.75;4.68;;;;;;;-147.05;100.00;58721.66;5028492;28;20416;-70
2022/05/03 12:00:13;;;;;;;13.20;4.70;;;;;;;-147.05;100.00;58721.66;5024414;28;20967;-70
2022/05/03 12:02:43;;;;;;;7.53;5.28;;;;;;;-147.05;100.00;58721.66;5018699;28;20146;-70
2022/05/03 12:05:14;;;;;;;6.25;4.45;;;;;;;-147.05;100.00;58721.66;5027140;28;20788;-70
2022/05/03 12:07:46;;;;;;;7.90;5.32;;;;;;;-147.05;100.00;58721.66;5034622;28;20062;-72
2022/05/03 12:10:34;;;;;;;8.30;4.88;;;;;;;-147.05;100.00;58721.66;5033665;28;20050;-69
2022/05/03 12:13:26;;;;;;;7.05;4.70;;;;;;;-147.05;100.00;58721.66;5026436;28;20146;-69
2022/05/03 12:15:59;;;;;;;7.45;4.35;;;;;;;-147.05;100.00;58721.66;5027986;28;20041;-70
2022/05/03 12:18:30;;;;;;;10.38;5.25;;;;;;;-147.05;100.00;58721.66;5034810;28;20052;-71
2022/05/03 12:21:03;;;;;;;5.90;4.90;;;;;;;-147.05;100.00;58721.66;5019175;28;20843;-72
2022/05/03 12:23:30;;;;;;;15.07;5.50;;;;;;;-147.05;100.00;58721.66;5017591;28;20046;-70
2022/05/03 12:25:59;;;;;;;8.27;5.93;;;;;;;-147.05;100.00;58721.66;5034774;28;20054;-71
2022/05/03 12:28:38;;;;;;;6.63;5.18;;;;;;;-147.05;100.00;58721.66;5023919;28;20034;-71